createdAt,value
2019-01-16T00:00:43.903Z,278.50
2019-01-16T00:03:52.712Z,277.50
2019-01-16T00:06:46.694Z,280.50
2019-01-16T00:09:37.296Z,263.25
2019-01-16T00:12:39.565Z,256.00
2019-01-16T00:15:22.504Z,266.50
2019-01-16T00:18:18.918Z,273.75
2019-01-16T00:21:09.616Z,257.00
2019-01-16T00:24:15.269Z,244.75
2019-01-16T00:27:20.828Z,243.50
2019-01-16T00:30:09.691Z,252.75
2019-01-16T00:32:58.836Z,245.50
2019-01-16T00:35:34.887Z,253.75
2019-01-16T00:38:33.129Z,247.00
2019-01-16T00:41:21.829Z,254.50
2019-01-16T00:44:13.082Z,258.25
2019-01-16T00:47:03.847Z,251.00
2019-01-16T00:49:53.007Z,246.75
2019-01-16T00:52:39.521Z,250.25
2019-01-16T00:55:30.169Z,253.00
2019-01-16T00:58:12.328Z,251.50
2019-01-16T01:01:05.884Z,236.75
2019-01-16T01:03:59.233Z,244.00
2019-01-16T01:06:59.013Z,257.50
2019-01-16T01:10:07.062Z,267.25
2019-01-16T01:12:56.119Z,244.50
2019-01-16T01:15:41.040Z,261.75
2019-01-16T01:18:40.887Z,269.50
2019-01-16T01:21:41.336Z,283.50
2019-01-16T01:24:35.100Z,274.75
2019-01-16T01:27:31.430Z,302.50
2019-01-16T01:30:40.282Z,295.25
2019-01-16T01:33:30.761Z,304.50
2019-01-16T01:36:14.800Z,326.25
2019-01-16T01:39:03.249Z,314.50
2019-01-16T01:41:54.362Z,352.50
2019-01-16T01:44:38.520Z,328.75
2019-01-16T01:47:35.679Z,327.25
2019-01-16T01:50:25.647Z,340.75
2019-01-16T01:53:31.393Z,345.25
2019-01-16T01:56:27.423Z,317.75
2019-01-16T01:59:20.584Z,316.00
2019-01-16T02:02:11.214Z,336.00
2019-01-16T02:05:00.548Z,331.50
2019-01-16T02:08:09.798Z,321.75
2019-01-16T02:10:51.209Z,308.50
2019-01-16T02:13:38.875Z,342.25
2019-01-16T02:16:29.167Z,341.50
2019-01-16T02:19:25.335Z,335.00
2019-01-16T02:22:30.859Z,408.50
2019-01-16T02:25:19.738Z,389.00
2019-01-16T02:28:10.425Z,414.25
2019-01-16T02:31:00.502Z,426.00
2019-01-16T02:33:56.536Z,419.00
2019-01-16T02:36:59.224Z,437.40
2019-01-16T02:40:04.980Z,421.40
2019-01-16T02:42:54.040Z,343.50
2019-01-16T02:46:00.500Z,373.75
2019-01-16T02:48:56.539Z,389.25
2019-01-16T02:51:50.023Z,400.40
2019-01-16T02:54:49.600Z,432.80
2019-01-16T02:57:42.457Z,443.20
2019-01-16T03:00:36.430Z,489.00
2019-01-16T03:03:28.090Z,503.60
2019-01-16T03:06:17.236Z,515.60
2019-01-16T03:09:00.496Z,551.17
2019-01-16T03:11:44.044Z,557.67
2019-01-16T03:14:40.225Z,580.80
2019-01-16T03:17:30.458Z,593.40
2019-01-16T03:20:30.221Z,627.20
2019-01-16T03:23:16.888Z,644.60
2019-01-16T03:26:13.927Z,617.40
2019-01-16T03:29:10.977Z,611.20
2019-01-16T03:31:48.942Z,604.60
2019-01-16T03:34:38.093Z,578.80
2019-01-16T03:37:29.650Z,600.60
2019-01-16T03:40:16.368Z,574.60
2019-01-16T03:43:05.082Z,619.60
2019-01-16T03:46:01.626Z,586.67
2019-01-16T03:48:55.207Z,563.20
2019-01-16T03:51:46.083Z,595.40
2019-01-16T03:54:39.243Z,592.20
2019-01-16T03:57:23.981Z,575.00
2019-01-16T04:00:20.024Z,565.60
2019-01-16T04:03:09.189Z,596.00
2019-01-16T04:05:56.750Z,578.40
2019-01-16T04:08:45.672Z,561.83
2019-01-16T04:11:26.298Z,577.67
2019-01-16T04:14:15.199Z,585.40
2019-01-16T04:17:04.471Z,557.20
2019-01-16T04:19:53.631Z,571.20
2019-01-16T04:22:46.586Z,518.20
2019-01-16T04:25:37.751Z,509.60
2019-01-16T04:28:23.089Z,507.20
2019-01-16T04:31:23.193Z,500.00
2019-01-16T04:34:12.674Z,477.20
2019-01-16T04:37:02.962Z,445.20
2019-01-16T04:39:59.405Z,457.00
2019-01-16T04:42:52.762Z,447.00
2019-01-16T04:45:43.143Z,400.20
2019-01-16T04:48:52.294Z,439.00
2019-01-16T04:51:52.002Z,421.00
2019-01-16T04:54:37.845Z,389.00
2019-01-16T04:57:27.257Z,366.00
2019-01-16T05:00:17.963Z,325.00
2019-01-16T05:03:18.110Z,341.00
2019-01-16T05:05:57.097Z,335.50
2019-01-16T05:08:42.157Z,370.50
2019-01-16T05:11:41.679Z,383.00
2019-01-16T05:14:40.881Z,386.25
2019-01-16T05:17:40.597Z,401.00
2019-01-16T05:20:29.968Z,355.75
2019-01-16T05:23:16.992Z,334.25
2019-01-16T05:26:06.042Z,338.25
2019-01-16T05:28:55.104Z,325.00
2019-01-16T05:31:45.594Z,266.25
2019-01-16T05:34:36.736Z,241.50
2019-01-16T05:37:29.814Z,184.00
2019-01-16T05:40:46.283Z,218.75
2019-01-16T05:43:32.170Z,194.75
2019-01-16T05:46:22.960Z,194.50
2019-01-16T05:49:13.435Z,184.00
2019-01-16T05:52:06.665Z,174.00
2019-01-16T05:54:57.092Z,177.80
2019-01-16T05:57:45.863Z,208.50
2019-01-16T06:00:39.125Z,201.50
2019-01-16T06:03:29.703Z,179.75
2019-01-16T06:06:15.627Z,174.60
2019-01-16T06:09:12.363Z,190.50
2019-01-16T06:12:03.366Z,175.75
2019-01-16T06:15:02.672Z,153.80
2019-01-16T06:17:58.801Z,165.00
2019-01-16T06:20:47.963Z,175.00
2019-01-16T06:23:47.878Z,193.50
2019-01-16T06:26:36.636Z,203.25
2019-01-16T06:29:38.602Z,186.75
2019-01-16T06:32:35.139Z,194.00
2019-01-16T06:35:38.123Z,207.25
2019-01-16T06:38:32.720Z,205.75
2019-01-16T06:41:26.059Z,191.00
2019-01-16T06:44:16.996Z,204.50
2019-01-16T06:47:07.583Z,197.00
2019-01-16T06:50:04.436Z,202.50
2019-01-16T06:53:00.670Z,207.50
2019-01-16T06:55:54.339Z,201.25
2019-01-16T06:58:37.536Z,212.75
2019-01-16T07:01:34.334Z,203.50
2019-01-16T07:04:22.949Z,218.25
2019-01-16T07:07:07.739Z,197.25
2019-01-16T07:09:51.044Z,199.50
2019-01-16T07:12:40.225Z,225.25
2019-01-16T07:15:36.442Z,201.00
2019-01-16T07:18:25.614Z,207.50
2019-01-16T07:21:27.773Z,182.50
2019-01-16T07:24:09.470Z,206.50
2019-01-16T07:27:05.493Z,198.00
2019-01-16T07:30:03.173Z,191.75
2019-01-16T07:33:05.855Z,207.75
2019-01-16T07:36:08.636Z,194.25
2019-01-16T07:38:58.097Z,182.75
2019-01-16T07:42:00.881Z,185.25
2019-01-16T07:44:57.225Z,175.20
2019-01-16T07:47:40.234Z,179.75
2019-01-16T07:50:33.908Z,192.50
2019-01-16T07:53:21.189Z,199.25
2019-01-16T07:56:26.879Z,195.75
2019-01-16T07:59:10.250Z,202.25
2019-01-16T08:01:59.465Z,169.25
2019-01-16T08:04:49.656Z,201.25
2019-01-16T08:07:42.357Z,187.25
2019-01-16T08:10:48.160Z,224.50
2019-01-16T08:13:38.568Z,218.25
2019-01-16T08:16:32.540Z,198.50
2019-01-16T08:19:22.009Z,185.75
2019-01-16T08:22:11.587Z,179.20
2019-01-16T08:25:11.398Z,187.25
2019-01-16T08:28:10.492Z,199.75
2019-01-16T08:31:19.512Z,186.75
2019-01-16T08:34:19.747Z,202.75
2019-01-16T08:37:18.024Z,184.75
2019-01-16T08:40:26.863Z,184.50
2019-01-16T08:43:12.614Z,212.75
2019-01-16T08:46:08.856Z,180.50
2019-01-16T08:48:58.058Z,197.25
2019-01-16T08:51:57.746Z,187.00
2019-01-16T08:54:46.697Z,184.50
2019-01-16T08:57:52.144Z,200.00
2019-01-16T09:00:48.479Z,165.25
2019-01-16T09:03:37.953Z,181.20
2019-01-16T09:06:27.431Z,173.60
2019-01-16T09:09:16.486Z,184.00
2019-01-16T09:12:07.097Z,165.20
2019-01-16T09:15:16.218Z,163.80
2019-01-16T09:18:07.204Z,166.20
2019-01-16T09:21:07.833Z,174.20
2019-01-16T09:24:16.278Z,155.00
2019-01-16T09:27:18.141Z,161.60
2019-01-16T09:30:06.920Z,167.40
2019-01-16T09:32:57.300Z,158.20
2019-01-16T09:35:47.885Z,159.60
2019-01-16T09:38:47.384Z,155.00
2019-01-16T09:41:37.782Z,149.60
2019-01-16T09:44:31.365Z,146.80
2019-01-16T09:47:31.072Z,147.60
2019-01-16T09:50:21.573Z,143.40
2019-01-16T09:53:02.788Z,158.80
2019-01-16T09:55:53.953Z,161.20
2019-01-16T09:58:43.445Z,145.40
2019-01-16T10:01:38.411Z,159.40
2019-01-16T10:04:30.051Z,153.00
2019-01-16T10:07:17.698Z,142.40
2019-01-16T10:10:01.713Z,159.60
2019-01-16T10:12:49.770Z,144.20
2019-01-16T10:15:38.620Z,146.80
2019-01-16T10:18:17.600Z,149.00
2019-01-16T10:20:59.724Z,154.80
2019-01-16T10:24:01.722Z,146.20
2019-01-16T10:26:50.968Z,137.80
2019-01-16T10:29:40.694Z,148.80
2019-01-16T10:32:29.618Z,135.00
2019-01-16T10:35:20.109Z,139.20
2019-01-16T10:38:19.206Z,149.20
2019-01-16T10:41:22.904Z,137.40
2019-01-16T10:44:12.488Z,144.60
2019-01-16T10:47:08.648Z,149.00
2019-01-16T10:50:03.248Z,141.80
2019-01-16T10:52:52.861Z,142.80
2019-01-16T10:55:41.741Z,147.20
2019-01-16T10:58:38.204Z,134.40
2019-01-16T11:01:26.231Z,137.20
2019-01-16T11:04:28.447Z,132.80
2019-01-16T11:07:17.439Z,142.80
2019-01-16T11:10:17.248Z,139.80
2019-01-16T11:13:13.907Z,131.20
2019-01-16T11:16:07.554Z,134.20
2019-01-16T11:19:03.825Z,128.80
2019-01-16T11:22:12.951Z,127.20
2019-01-16T11:25:01.616Z,122.40
2019-01-16T11:28:01.530Z,117.60
2019-01-16T11:30:49.419Z,127.20
2019-01-16T11:33:55.604Z,125.60
2019-01-16T11:36:44.554Z,114.80
2019-01-16T11:39:47.646Z,124.00
2019-01-16T11:42:45.223Z,130.00
2019-01-16T11:45:24.337Z,119.80
2019-01-16T11:48:20.669Z,120.40
2019-01-16T11:51:18.486Z,129.80
2019-01-16T11:54:04.560Z,131.00
2019-01-16T11:56:43.573Z,133.00
2019-01-16T11:59:41.539Z,140.40
2019-01-16T12:02:44.122Z,149.40
2019-01-16T12:05:39.411Z,126.40
2019-01-16T12:08:29.721Z,161.00
2019-01-16T12:11:29.031Z,126.80
2019-01-16T12:14:18.188Z,131.60
2019-01-16T12:17:01.832Z,133.20
2019-01-16T12:19:58.248Z,143.00
2019-01-16T12:22:54.902Z,145.40
2019-01-16T12:25:38.544Z,142.80
2019-01-16T12:28:34.871Z,136.80
2019-01-16T12:31:23.825Z,145.80
2019-01-16T12:34:14.327Z,151.40
2019-01-16T12:37:04.824Z,147.00
2019-01-16T12:39:55.530Z,154.20
2019-01-16T12:42:44.504Z,166.20
2019-01-16T12:45:37.745Z,184.20
2019-01-16T12:48:44.212Z,180.75
2019-01-16T12:51:38.616Z,183.25
2019-01-16T12:54:31.849Z,193.75
2019-01-16T12:57:36.559Z,205.75
2019-01-16T13:00:44.579Z,242.00
2019-01-16T13:03:35.904Z,686.20
2019-01-16T13:09:15.362Z,604.60
2019-01-16T13:12:06.374Z,603.00
2019-01-16T13:15:00.974Z,542.50
2019-01-16T13:17:50.426Z,501.00
2019-01-16T13:20:40.821Z,489.20
2019-01-16T13:23:29.986Z,425.25
2019-01-16T13:26:18.751Z,390.00
2019-01-16T13:29:15.089Z,371.75
2019-01-16T13:32:14.707Z,341.50
2019-01-16T13:35:05.806Z,320.50
2019-01-16T13:37:48.936Z,296.00
2019-01-16T13:40:38.622Z,319.25
2019-01-16T13:43:24.702Z,296.75
2019-01-16T13:46:14.886Z,312.50
2019-01-16T14:00:37.416Z,277.75
2019-01-16T14:03:20.997Z,285.00
2019-01-16T14:06:11.510Z,298.00
2019-01-16T14:09:12.941Z,284.00
2019-01-16T14:12:01.871Z,295.75
2019-01-16T14:14:51.630Z,287.00
2019-01-16T14:17:46.264Z,317.25
2019-01-16T14:20:37.364Z,317.25
2019-01-16T14:23:42.925Z,322.75
2019-01-16T14:26:31.784Z,336.00
2019-01-16T14:29:24.851Z,316.75
2019-01-16T14:32:13.700Z,319.00
2019-01-16T14:35:12.997Z,343.50
2019-01-16T14:38:02.056Z,325.75
2019-01-16T14:41:00.236Z,337.75
2019-01-16T14:43:43.370Z,336.25
2019-01-16T14:46:32.114Z,331.00
2019-01-16T14:49:18.457Z,344.50
2019-01-16T14:52:14.971Z,336.75
2019-01-16T14:55:06.308Z,324.50
2019-01-16T14:57:47.235Z,351.75
2019-01-16T15:00:37.436Z,327.75
2019-01-16T15:03:26.387Z,359.50
2019-01-16T15:06:13.315Z,338.00
2019-01-16T15:09:07.485Z,347.50
2019-01-16T15:12:00.958Z,343.00
2019-01-16T15:14:50.334Z,366.50
2019-01-16T15:17:40.611Z,350.00
2019-01-16T15:20:43.801Z,373.75
2019-01-16T15:23:26.043Z,376.00
2019-01-16T15:26:15.267Z,361.50
2019-01-16T15:28:57.884Z,386.00
2019-01-16T15:31:47.150Z,377.75
2019-01-16T15:34:49.367Z,363.50
2019-01-16T15:37:43.001Z,369.75
2019-01-16T15:40:32.858Z,378.00
2019-01-16T15:43:20.426Z,361.00
2019-01-16T15:46:20.452Z,377.75
2019-01-16T15:49:17.343Z,338.75
2019-01-16T15:52:13.059Z,349.25
2019-01-16T15:55:09.119Z,363.75
2019-01-16T15:57:59.573Z,414.50
2019-01-16T16:00:56.150Z,408.75
2019-01-16T16:04:02.000Z,410.00
2019-01-16T16:06:50.859Z,413.25
2019-01-16T16:09:38.146Z,414.00
2019-01-16T16:12:29.205Z,435.60
2019-01-16T16:15:22.358Z,432.60
2019-01-16T16:18:21.868Z,379.75
2019-01-16T16:21:20.653Z,404.25
2019-01-16T16:24:05.772Z,416.00
2019-01-16T16:26:48.351Z,409.25
2019-01-16T16:29:37.815Z,379.25
2019-01-16T16:32:37.511Z,390.00
2019-01-16T16:35:27.458Z,386.25
2019-01-16T16:38:16.257Z,380.50
2019-01-16T16:41:12.483Z,369.00
2019-01-16T16:44:03.188Z,372.00
2019-01-16T16:46:57.462Z,369.75
2019-01-16T16:49:40.585Z,371.00
2019-01-16T16:52:31.195Z,353.25
2019-01-16T16:55:37.860Z,373.50
2019-01-16T16:58:31.324Z,371.75
2019-01-16T17:01:28.061Z,363.75
2019-01-16T17:04:18.212Z,364.50
2019-01-16T17:07:14.273Z,356.25
2019-01-16T17:10:04.266Z,373.25
2019-01-16T17:12:55.361Z,366.00
2019-01-16T17:15:51.424Z,374.50
2019-01-16T17:18:39.493Z,350.75
2019-01-16T17:21:26.038Z,350.25
2019-01-16T17:24:26.497Z,347.00
2019-01-16T17:27:15.343Z,362.75
2019-01-16T17:30:00.394Z,374.25
2019-01-16T17:32:59.509Z,354.00
2019-01-16T17:36:01.967Z,370.75
2019-01-16T17:38:58.099Z,365.00
2019-01-16T17:41:41.562Z,360.75
2019-01-16T17:44:28.961Z,381.00
2019-01-16T17:47:25.492Z,373.50
2019-01-16T17:50:15.589Z,371.00
2019-01-16T17:53:15.195Z,369.75
2019-01-16T17:56:07.953Z,354.75
2019-01-16T17:58:57.568Z,359.50
2019-01-16T18:02:00.089Z,367.75
2019-01-16T18:04:44.550Z,369.25
2019-01-16T18:07:33.211Z,364.50
2019-01-16T18:10:24.022Z,360.75
2019-01-16T18:13:26.087Z,369.75
2019-01-16T18:16:22.507Z,377.50
2019-01-16T18:19:12.801Z,379.25
2019-01-16T18:22:11.887Z,397.25
2019-01-16T18:25:00.858Z,384.50
2019-01-16T18:27:44.154Z,384.75
2019-01-16T18:30:44.716Z,365.50
2019-01-16T18:33:37.252Z,363.25
2019-01-16T18:36:25.960Z,389.00
2019-01-16T18:39:31.870Z,387.50
2019-01-16T18:42:28.104Z,378.50
2019-01-16T18:45:26.689Z,380.25
2019-01-16T18:48:20.376Z,372.25
2019-01-16T18:51:11.568Z,377.50
2019-01-16T18:53:58.067Z,389.50
2019-01-16T18:56:56.867Z,381.00
2019-01-16T18:59:50.541Z,358.00
2019-01-16T19:02:37.760Z,352.50
2019-01-16T19:05:37.459Z,371.00
2019-01-16T19:08:38.809Z,365.75
2019-01-16T19:11:41.095Z,377.25
2019-01-16T19:14:46.541Z,370.00
2019-01-16T19:17:43.500Z,343.25
2019-01-16T19:20:35.097Z,359.25
2019-01-16T19:23:25.295Z,376.25
2019-01-16T19:26:10.869Z,363.75
2019-01-16T19:29:00.557Z,360.00
2019-01-16T19:31:53.709Z,358.50
2019-01-16T19:34:34.481Z,355.25
2019-01-16T19:37:17.190Z,362.25
2019-01-16T19:40:20.499Z,342.00
2019-01-16T19:43:29.312Z,333.75
2019-01-16T19:46:31.810Z,323.25
2019-01-16T19:49:13.993Z,325.25
2019-01-16T19:51:58.967Z,320.00
2019-01-16T19:54:49.149Z,325.75
2019-01-16T19:57:39.330Z,331.00
2019-01-16T20:00:36.797Z,334.50
2019-01-16T20:03:35.789Z,304.25
2019-01-16T20:06:32.121Z,316.50
2019-01-16T20:09:20.576Z,315.50
2019-01-16T20:12:26.324Z,321.75
2019-01-16T20:15:19.897Z,318.00
2019-01-16T20:18:12.736Z,308.25
2019-01-16T20:21:01.849Z,325.75
2019-01-16T20:23:50.667Z,326.50
2019-01-16T20:26:53.256Z,333.75
2019-01-16T20:29:41.898Z,332.75
2019-01-16T20:32:32.281Z,310.00
2019-01-16T20:35:25.146Z,316.25
2019-01-16T20:38:15.430Z,312.50
2019-01-16T20:41:00.366Z,303.75
2019-01-16T20:43:59.917Z,315.25
2019-01-16T20:47:05.460Z,306.75
2019-01-16T20:49:55.236Z,316.00
2019-01-16T20:52:48.398Z,302.00
2019-01-16T20:55:45.992Z,310.25
2019-01-16T20:58:29.107Z,301.50
2019-01-16T21:01:10.865Z,295.75
2019-01-16T21:04:07.114Z,294.25
2019-01-16T21:06:55.965Z,276.25
2019-01-16T21:09:54.746Z,295.25
2019-01-16T21:13:00.408Z,266.00
2019-01-16T21:15:51.755Z,265.50
2019-01-16T21:18:52.759Z,270.50
2019-01-16T21:21:35.982Z,262.75
2019-01-16T21:24:25.255Z,273.75
2019-01-16T21:27:15.851Z,265.25
2019-01-16T21:30:06.034Z,264.25
2019-01-16T21:32:46.098Z,274.50
2019-01-16T21:35:36.689Z,283.75
2019-01-16T21:38:45.350Z,277.00
2019-01-16T21:41:35.878Z,276.75
2019-01-16T21:44:35.315Z,264.50
2019-01-16T21:47:38.001Z,278.25
2019-01-16T21:50:27.375Z,271.50
2019-01-16T21:53:15.502Z,249.75
2019-01-16T21:56:05.592Z,283.75
2019-01-16T21:58:54.660Z,277.00
2019-01-16T22:01:53.549Z,265.25
2019-01-16T22:04:42.596Z,269.25
2019-01-16T22:07:50.826Z,271.50
2019-01-16T22:10:44.276Z,249.50
2019-01-16T22:13:34.382Z,269.25
2019-01-16T22:16:26.438Z,272.00
2019-01-16T22:19:23.863Z,257.25
2019-01-16T22:22:16.415Z,256.50
2019-01-16T22:25:13.862Z,253.25
2019-01-16T22:27:56.990Z,258.75
2019-01-16T22:30:49.839Z,248.75
2019-01-16T22:33:45.960Z,264.00
2019-01-16T22:36:29.911Z,267.25
2019-01-16T22:39:19.820Z,261.75
2019-01-16T22:42:08.850Z,247.75
2019-01-16T22:44:59.056Z,262.50
2019-01-16T22:47:40.548Z,265.75
2019-01-16T22:50:36.879Z,255.75
2019-01-16T22:53:30.372Z,260.50
2019-01-16T22:56:29.730Z,266.00
2019-01-16T22:59:19.420Z,259.75
2019-01-16T23:02:05.247Z,250.25
2019-01-16T23:04:55.006Z,260.75
2019-01-16T23:07:34.955Z,267.50
2019-01-16T23:10:43.266Z,248.50
2019-01-16T23:13:36.305Z,262.00
2019-01-16T23:16:42.256Z,258.50
2019-01-16T23:19:31.213Z,269.25
2019-01-16T23:22:27.445Z,283.25
2019-01-16T23:25:16.193Z,288.00
2019-01-16T23:28:10.713Z,284.50
2019-01-16T23:31:13.926Z,294.00
2019-01-16T23:34:10.340Z,293.00
2019-01-16T23:37:05.734Z,280.75
2019-01-16T23:39:45.793Z,291.00
2019-01-16T23:42:34.754Z,280.25
2019-01-16T23:45:31.489Z,282.00
2019-01-16T23:48:22.078Z,274.75
2019-01-16T23:51:05.118Z,274.50
2019-01-16T23:53:58.569Z,262.50
2019-01-16T23:56:47.221Z,273.75
2019-01-16T23:59:43.563Z,272.25
